Time;durP1;ratioP1;P1;durP2;ratioP2;P2;SDS_P1;SDS_P2;PMS_P1;PMS_P2;Temp;Humidity;BMP_temperature;BMP_pressure;BME280_temperature;BME280_humidity;BME280_pressure;Samples;Min_cycle;Max_cycle;Signal;HPM_P1;HPM_P2
2021/09/13 00:01:37;;;;;;;6.50;1.50;;;;;;;14.76;76.31;101918.38;5025068;28;20033;-73
2021/09/13 00:04:02;;;;;;;6.57;2.20;;;;;;;14.72;76.52;101915.19;5021538;28;20033;-74
2021/09/13 00:06:28;;;;;;;11.13;2.47;;;;;;;14.70;76.77;101911.81;5015299;28;20022;-73
2021/09/13 00:08:53;;;;;;;5.53;1.50;;;;;;;14.69;76.53;101913.69;5030324;28;20026;-73
2021/09/13 00:11:18;;;;;;;10.38;1.80;;;;;;;14.66;76.67;101915.91;5020243;28;20032;-74
2021/09/13 00:13:44;;;;;;;10.48;2.13;;;;;;;14.59;76.51;101913.09;5020642;28;20503;-74
2021/09/13 00:16:09;;;;;;;8.95;1.42;;;;;;;14.60;76.84;101912.06;5020891;28;20037;-73
2021/09/13 00:18:34;;;;;;;6.05;1.55;;;;;;;14.56;77.04;101910.75;5020963;28;20113;-74
2021/09/13 00:21:00;;;;;;;13.40;2.00;;;;;;;14.48;77.43;101906.22;5019335;28;20096;-74
2021/09/13 00:23:25;;;;;;;6.18;1.88;;;;;;;14.47;77.29;101912.63;5021589;28;20034;-73
2021/09/13 00:25:51;;;;;;;7.72;1.77;;;;;;;14.44;77.14;101909.47;5021583;28;20032;-73
2021/09/13 00:28:16;;;;;;;10.63;1.95;;;;;;;14.41;77.49;101915.25;5020972;28;20026;-73
2021/09/13 00:30:41;;;;;;;13.80;2.08;;;;;;;14.41;77.30;101905.25;5021573;28;20030;-73
2021/09/13 00:33:07;;;;;;;12.10;1.98;;;;;;;14.37;77.22;101912.03;5020493;28;20054;-73
2021/09/13 00:35:32;;;;;;;12.57;2.15;;;;;;;14.34;77.50;101911.56;5021494;28;20064;-73
2021/09/13 00:37:58;;;;;;;15.45;2.10;;;;;;;14.29;77.77;101912.09;5020986;28;20084;-74
2021/09/13 00:40:24;;;;;;;9.60;1.88;;;;;;;14.27;77.83;101906.88;5020362;28;20041;-73
2021/09/13 00:42:49;;;;;;;9.60;1.80;;;;;;;14.24;78.17;101907.25;5022063;28;20093;-73
2021/09/13 00:45:15;;;;;;;7.57;2.05;;;;;;;14.21;78.51;101906.75;5022736;28;20058;-74
2021/09/13 00:47:40;;;;;;;7.60;1.45;;;;;;;14.19;78.59;101906.94;5021364;28;20065;-73
2021/09/13 00:50:06;;;;;;;11.30;2.20;;;;;;;14.15;78.72;101908.31;5025591;28;20033;-73
2021/09/13 00:52:32;;;;;;;8.18;2.28;;;;;;;14.11;78.96;101903.44;5021828;28;20116;-73
2021/09/13 00:54:59;;;;;;;8.13;2.33;;;;;;;14.09;79.23;101909.03;5021065;28;20081;-73
2021/09/13 00:57:26;;;;;;;12.43;2.20;;;;;;;14.10;79.08;101904.47;5021390;28;20033;-73
2021/09/13 00:59:51;;;;;;;7.68;2.45;;;;;;;14.09;79.31;101908.19;5037237;28;20543;-73
2021/09/13 01:02:17;;;;;;;7.90;1.90;;;;;;;14.09;79.19;101903.63;5022439;28;20041;-72
2021/09/13 01:04:42;;;;;;;10.13;2.30;;;;;;;14.08;79.05;101904.63;5023343;28;20045;-72
2021/09/13 01:07:07;;;;;;;7.82;2.20;;;;;;;14.11;79.29;101903.44;5022391;28;20057;-73
2021/09/13 01:09:33;;;;;;;7.55;2.05;;;;;;;14.08;79.14;101895.69;5022897;28;20022;-73
2021/09/13 01:11:59;;;;;;;9.35;2.60;;;;;;;14.06;79.22;101909.41;5038304;28;20085;-73
2021/09/13 01:14:41;;;;;;;8.55;2.67;;;;;;;14.04;79.29;101903.31;5021832;28;20037;-73
2021/09/13 01:17:08;;;;;;;6.55;2.17;;;;;;;14.06;79.47;101901.28;5023999;28;20026;-73
2021/09/13 01:19:33;;;;;;;9.55;2.28;;;;;;;14.04;79.83;101897.91;5023554;28;20056;-73
2021/09/13 01:22:01;;;;;;;5.88;2.30;;;;;;;14.07;79.47;101899.41;5023153;28;20030;-73
2021/09/13 01:24:28;;;;;;;7.57;2.00;;;;;;;14.09;79.56;101900.91;5021536;28;20381;-72
2021/09/13 01:26:58;;;;;;;17.10;2.90;;;;;;;14.12;79.57;101908.69;5023707;28;20093;-73
2021/09/13 01:29:23;;;;;;;10.07;2.53;;;;;;;14.14;79.43;101894.94;5019326;28;20065;-73
2021/09/13 01:31:48;;;;;;;5.85;2.15;;;;;;;14.18;79.39;101899.00;5020015;28;20037;-72
2021/09/13 01:34:14;;;;;;;4.15;1.85;;;;;;;14.18;79.44;101899.81;5022251;28;20025;-72
2021/09/13 01:36:39;;;;;;;8.75;2.40;;;;;;;14.19;79.43;101898.81;5023133;28;20101;-73
2021/09/13 01:39:04;;;;;;;9.65;2.33;;;;;;;14.21;79.66;101894.03;5021396;28;20389;-73
2021/09/13 01:41:30;;;;;;;10.52;2.38;;;;;;;14.24;79.39;101904.53;5020933;28;20049;-73
2021/09/13 01:43:55;;;;;;;6.18;2.03;;;;;;;14.29;79.13;101898.56;5021839;28;20018;-73
2021/09/13 01:46:20;;;;;;;7.50;2.30;;;;;;;14.32;79.30;101881.13;5021663;28;20034;-73
2021/09/13 01:48:46;;;;;;;12.02;2.40;;;;;;;14.38;79.08;101889.38;5021039;28;20072;-73
2021/09/13 01:51:11;;;;;;;4.03;1.77;;;;;;;14.39;78.89;101884.78;5021602;28;20040;-73
2021/09/13 01:53:36;;;;;;;8.98;2.50;;;;;;;14.40;79.05;101884.63;5020893;28;20068;-73
2021/09/13 01:56:01;;;;;;;9.75;2.08;;;;;;;14.42;78.94;101879.84;5020769;28;20026;-73
2021/09/13 01:58:27;;;;;;;8.65;2.10;;;;;;;14.44;79.17;101874.25;5019834;28;20378;-73
2021/09/13 02:00:52;;;;;;;5.32;1.77;;;;;;;14.48;79.24;101878.25;5020045;28;20492;-74
2021/09/13 02:03:17;;;;;;;5.07;1.67;;;;;;;14.51;79.08;101875.22;5020525;28;20030;-72
2021/09/13 02:05:43;;;;;;;6.75;1.98;;;;;;;14.54;79.28;101874.88;5022012;28;20030;-72
2021/09/13 02:08:08;;;;;;;5.32;2.80;;;;;;;14.57;79.02;101871.81;5024909;28;20436;-73
2021/09/13 02:10:33;;;;;;;8.88;1.88;;;;;;;14.56;79.21;101878.25;5021492;28;20500;-73
2021/09/13 02:12:59;;;;;;;7.72;2.30;;;;;;;14.54;79.27;101883.00;5022226;28;20057;-74
2021/09/13 02:15:24;;;;;;;9.43;2.05;;;;;;;14.51;79.47;101883.34;5023114;28;20040;-73
2021/09/13 02:17:50;;;;;;;5.18;2.10;;;;;;;14.53;79.23;101884.00;5021732;28;20052;-73
2021/09/13 02:20:15;;;;;;;12.15;3.47;;;;;;;14.52;79.86;101882.31;5023025;28;20069;-73
2021/09/13 02:22:41;;;;;;;7.10;2.13;;;;;;;14.58;79.93;101878.06;5019215;28;20026;-72
2021/09/13 02:25:07;;;;;;;8.70;2.20;;;;;;;14.68;80.36;101884.91;5019870;28;20069;-74
2021/09/13 02:27:33;;;;;;;6.93;2.58;;;;;;;14.75;80.71;101887.72;5019472;28;20022;-73
2021/09/13 02:29:58;;;;;;;11.23;3.13;;;;;;;14.82;80.72;101882.41;5018990;28;20041;-73
2021/09/13 02:32:24;;;;;;;10.15;3.10;;;;;;;14.84;80.67;101869.50;5019334;28;20113;-73
2021/09/13 02:34:49;;;;;;;6.78;2.42;;;;;;;14.83;81.36;101873.25;5021664;28;20069;-73
2021/09/13 02:37:14;;;;;;;9.45;3.03;;;;;;;14.81;81.90;101870.72;5021242;28;20068;-73
2021/09/13 02:39:40;;;;;;;11.07;3.00;;;;;;;14.83;82.24;101865.97;5021268;28;20026;-73
2021/09/13 02:42:05;;;;;;;11.00;3.35;;;;;;;14.88;81.71;101878.97;5021004;28;20026;-73
2021/09/13 02:44:30;;;;;;;11.80;3.28;;;;;;;14.88;81.76;101876.25;5020411;28;20113;-73
2021/09/13 02:46:56;;;;;;;15.82;3.55;;;;;;;14.90;82.17;101875.03;5019152;28;20113;-73
2021/09/13 02:49:21;;;;;;;8.70;3.22;;;;;;;14.91;81.70;101870.47;5018269;28;20141;-73
2021/09/13 02:51:47;;;;;;;11.40;3.40;;;;;;;14.94;81.93;101875.50;5018836;28;20400;-73
2021/09/13 02:54:12;;;;;;;10.25;3.45;;;;;;;14.96;82.39;101873.47;5019396;28;20033;-73
2021/09/13 02:56:38;;;;;;;11.68;3.20;;;;;;;15.00;82.47;101873.91;5020462;28;20025;-73
2021/09/13 02:59:03;;;;;;;7.97;3.08;;;;;;;15.02;81.88;101871.88;5018894;28;20041;-73
2021/09/13 03:01:29;;;;;;;10.73;3.30;;;;;;;15.01;81.75;101873.75;5023696;28;20469;-74
2021/09/13 03:03:54;;;;;;;8.30;3.40;;;;;;;14.97;82.07;101869.72;5020304;28;20543;-74
2021/09/13 03:06:19;;;;;;;17.50;3.85;;;;;;;14.94;82.21;101872.78;5019717;28;20087;-74
2021/09/13 03:08:45;;;;;;;12.90;3.33;;;;;;;14.90;82.43;101876.88;5018558;28;20110;-74
2021/09/13 03:11:10;;;;;;;11.05;2.95;;;;;;;14.88;82.25;101877.09;5021419;28;20112;-73
2021/09/13 03:13:35;;;;;;;9.85;3.30;;;;;;;14.86;82.38;101872.88;5024179;28;20034;-74
2021/09/13 03:16:01;;;;;;;6.70;3.13;;;;;;;14.85;82.03;101871.19;5023773;28;20037;-74
2021/09/13 03:18:26;;;;;;;11.98;3.03;;;;;;;14.84;82.48;101869.50;5023911;28;20628;-74
2021/09/13 03:20:51;;;;;;;15.98;3.05;;;;;;;14.84;82.29;101869.50;5023922;28;20049;-74
2021/09/13 03:23:17;;;;;;;6.97;2.80;;;;;;;14.82;82.69;101866.13;5023808;28;20432;-74
2021/09/13 03:25:42;;;;;;;9.63;2.80;;;;;;;14.83;82.42;101865.13;5026876;28;20474;-74
2021/09/13 03:28:07;;;;;;;13.18;2.75;;;;;;;14.80;82.55;101868.22;5023796;28;20531;-74
2021/09/13 03:30:33;;;;;;;13.77;3.10;;;;;;;14.80;82.29;101868.22;5023782;28;20029;-73
2021/09/13 03:32:58;;;;;;;13.02;2.72;;;;;;;14.78;82.72;101870.25;5023567;28;20030;-73
2021/09/13 03:35:24;;;;;;;13.55;3.58;;;;;;;14.77;83.04;101861.28;5023315;28;20026;-74
2021/09/13 03:37:49;;;;;;;9.40;3.90;;;;;;;14.74;83.18;101864.34;5023068;28;20030;-74
2021/09/13 03:40:14;;;;;;;11.95;3.40;;;;;;;14.74;83.43;101874.34;5023392;28;20030;-74
2021/09/13 03:42:40;;;;;;;9.82;3.58;;;;;;;14.78;83.51;101870.25;5023528;28;20036;-73
2021/09/13 03:45:06;;;;;;;9.50;3.88;;;;;;;14.84;83.34;101869.50;5023766;28;20493;-74
2021/09/13 03:47:31;;;;;;;10.07;3.65;;;;;;;14.88;84.16;101876.25;5017399;28;20369;-74
2021/09/13 03:49:56;;;;;;;9.18;3.55;;;;;;;14.90;83.52;101875.03;5014117;28;20041;-74
2021/09/13 03:52:22;;;;;;;12.30;3.67;;;;;;;14.92;84.98;101872.13;5014194;28;20440;-76
2021/09/13 03:54:47;;;;;;;13.10;4.80;;;;;;;14.93;85.81;101873.84;5015749;28;20107;-75
2021/09/13 03:57:12;;;;;;;6.28;3.40;;;;;;;14.92;85.67;101872.97;5015472;28;20566;-74
2021/09/13 03:59:38;;;;;;;15.27;4.60;;;;;;;14.91;86.07;101865.03;5016578;28;20037;-75
2021/09/13 04:02:03;;;;;;;10.32;4.35;;;;;;;14.89;86.85;101861.66;5016043;28;20030;-74
2021/09/13 04:04:29;;;;;;;13.25;4.57;;;;;;;14.86;87.08;101868.28;5009560;28;20508;-74
2021/09/13 04:07:03;;;;;;;6.47;3.60;;;;;;;14.84;87.54;101864.09;5014680;28;20026;-75
2021/09/13 04:11:58;;;;;;;8.00;3.40;;;;;;;14.81;87.51;101869.88;5016239;28;20042;-75
2021/09/13 04:14:30;;;;;;;8.68;3.17;;;;;;;14.85;88.07;101871.19;5017266;28;20026;-75
2021/09/13 04:16:56;;;;;;;13.77;3.90;;;;;;;14.88;88.29;101868.13;4996575;28;20030;-74
2021/09/13 04:19:22;;;;;;;4.47;3.47;;;;;;;14.90;88.25;101868.75;5014588;28;20056;-74
2021/09/13 04:21:48;;;;;;;10.05;3.13;;;;;;;14.91;87.81;101870.47;5031266;28;20033;-75
2021/09/13 04:24:14;;;;;;;10.45;3.20;;;;;;;14.93;87.77;101873.84;5015934;28;20096;-74
2021/09/13 04:26:39;;;;;;;10.23;3.60;;;;;;;14.94;87.87;101872.78;5016711;28;20034;-75
2021/09/13 04:29:05;;;;;;;12.18;3.65;;;;;;;15.00;87.57;101872.03;5016323;28;20030;-75
2021/09/13 04:31:31;;;;;;;11.25;3.22;;;;;;;15.09;87.31;101879.06;5027195;28;20034;-75
2021/09/13 04:33:56;;;;;;;14.38;3.40;;;;;;;15.07;87.43;101877.56;5010408;28;20038;-74
2021/09/13 04:36:22;;;;;;;8.93;3.22;;;;;;;15.02;87.01;101875.41;5013519;28;20033;-75
2021/09/13 04:38:48;;;;;;;10.35;3.17;;;;;;;15.01;87.37;101883.72;5014552;28;20029;-75
2021/09/13 04:41:13;;;;;;;9.07;2.90;;;;;;;14.98;86.58;101874.13;5031388;28;20072;-75
2021/09/13 04:43:39;;;;;;;8.35;2.80;;;;;;;14.98;86.64;101876.84;5024226;28;20075;-75
2021/09/13 04:46:04;;;;;;;6.90;2.65;;;;;;;14.92;87.11;101874.84;5012567;28;20093;-75
2021/09/13 04:48:30;;;;;;;10.55;3.15;;;;;;;14.82;87.14;101866.97;5015486;28;20104;-74
2021/09/13 04:50:55;;;;;;;5.97;2.78;;;;;;;14.78;87.60;101864.84;5034142;28;20021;-74
2021/09/13 04:53:21;;;;;;;7.70;2.95;;;;;;;14.77;87.19;101868.56;5025909;28;20025;-75
2021/09/13 04:55:46;;;;;;;15.20;3.00;;;;;;;14.86;86.50;101862.88;4996640;28;20029;-74
2021/09/13 04:58:12;;;;;;;11.73;2.75;;;;;;;14.78;85.05;101867.53;5012565;28;20049;-74
2021/09/13 05:00:37;;;;;;;8.15;2.25;;;;;;;14.76;85.18;101880.44;5013945;28;20021;-74
2021/09/13 05:03:03;;;;;;;8.15;2.90;;;;;;;14.63;85.25;101879.19;4997786;28;20148;-74
2021/09/13 05:05:28;;;;;;;11.88;3.33;;;;;;;14.74;85.85;101877.91;5016250;28;20058;-74
2021/09/13 05:07:54;;;;;;;11.32;4.18;;;;;;;14.78;85.59;101870.25;5009638;28;20121;-75
2021/09/13 05:10:19;;;;;;;7.03;3.60;;;;;;;14.90;85.73;101868.75;5011824;28;20481;-74
2021/09/13 05:12:45;;;;;;;7.22;3.22;;;;;;;14.90;85.99;101868.75;5010887;28;20034;-74
2021/09/13 05:15:10;;;;;;;10.23;3.55;;;;;;;14.86;85.78;101875.59;5007880;28;20032;-75
2021/09/13 05:17:36;;;;;;;7.82;3.05;;;;;;;14.86;85.62;101864.75;5002061;28;20034;-74
2021/09/13 05:20:01;;;;;;;6.93;2.83;;;;;;;14.88;85.56;101870.84;5035643;28;20045;-74
2021/09/13 05:22:26;;;;;;;10.45;3.30;;;;;;;14.86;84.88;101875.59;5017105;28;20481;-75
2021/09/13 05:24:52;;;;;;;9.32;3.63;;;;;;;14.84;85.53;101877.63;5033490;28;20125;-75
2021/09/13 05:27:17;;;;;;;8.68;3.70;;;;;;;14.83;86.14;101868.66;5021771;28;20030;-77
2021/09/13 05:29:42;;;;;;;16.38;3.80;;;;;;;14.83;86.33;101878.69;5020172;28;20044;-77
2021/09/13 05:32:08;;;;;;;8.52;3.70;;;;;;;14.85;86.16;101882.88;5037440;28;20022;-75
2021/09/13 05:34:33;;;;;;;11.95;3.58;;;;;;;14.94;86.21;101883.63;5022669;28;20507;-74
2021/09/13 05:36:59;;;;;;;17.17;4.10;;;;;;;15.02;86.08;101880.84;5025069;28;20095;-74
2021/09/13 05:39:24;;;;;;;10.85;4.43;;;;;;;15.04;85.67;101880.66;5030265;28;20056;-73
2021/09/13 05:41:49;;;;;;;16.70;5.03;;;;;;;15.05;85.74;101877.75;5021251;28;20042;-74
2021/09/13 05:44:14;;;;;;;9.13;3.53;;;;;;;15.11;85.42;101879.72;5022317;28;20095;-74
2021/09/13 05:46:40;;;;;;;10.45;4.35;;;;;;;15.15;85.36;101882.91;5015106;28;20034;-75
2021/09/13 05:49:15;;;;;;;13.65;4.70;;;;;;;15.13;85.17;101880.38;5033108;28;20113;-73
2021/09/13 05:51:45;;;;;;;12.95;3.88;;;;;;;15.17;85.31;101877.31;5017782;28;20022;-73
2021/09/13 05:54:11;;;;;;;8.00;4.03;;;;;;;15.20;84.92;101887.78;5022367;28;20038;-76
2021/09/13 05:56:37;;;;;;;8.50;4.22;;;;;;;15.23;85.09;101885.53;5038436;28;20037;-74
2021/09/13 05:59:02;;;;;;;19.23;4.63;;;;;;;15.28;85.63;101883.09;5027609;28;20034;-76
2021/09/13 06:01:27;;;;;;;21.15;4.50;;;;;;;15.35;85.57;101881.31;5028725;28;20465;-71
2021/09/13 06:03:53;;;;;;;25.90;5.13;;;;;;;15.39;85.13;101895.34;5025778;28;20018;-73
2021/09/13 06:06:18;;;;;;;15.75;5.13;;;;;;;15.41;84.85;101890.56;5034023;28;20101;-73
2021/09/13 06:08:44;;;;;;;22.30;5.13;;;;;;;15.46;85.08;101890.84;5032322;28;20037;-75
2021/09/13 06:11:09;;;;;;;22.00;5.47;;;;;;;15.54;85.28;101890.75;5032328;28;20045;-74
2021/09/13 06:13:34;;;;;;;18.65;5.70;;;;;;;15.66;85.37;101901.09;5029860;28;20042;-74
2021/09/13 06:16:00;;;;;;;24.23;5.88;;;;;;;15.76;85.50;101901.69;5027648;28;20026;-73
2021/09/13 06:18:26;;;;;;;23.33;6.00;;;;;;;15.87;84.99;101903.88;5025812;28;20025;-74
2021/09/13 06:20:51;;;;;;;22.45;5.97;;;;;;;15.97;85.03;101903.59;5022992;28;20104;-75
2021/09/13 06:23:16;;;;;;;16.13;5.72;;;;;;;16.15;83.53;101895.84;5014726;28;20025;-73
2021/09/13 06:25:42;;;;;;;8.65;5.25;;;;;;;16.29;82.06;101896.81;5006414;28;20124;-73
2021/09/13 06:28:07;;;;;;;15.77;5.90;;;;;;;16.31;82.02;101905.63;5017061;28;20064;-74
2021/09/13 06:30:33;;;;;;;20.27;5.68;;;;;;;16.33;82.23;101909.00;5027724;28;20041;-74
2021/09/13 06:32:58;;;;;;;19.48;6.55;;;;;;;16.31;82.00;101905.63;5025140;28;20034;-73
2021/09/13 06:35:23;;;;;;;19.05;6.72;;;;;;;16.34;82.10;101915.25;5037708;28;20104;-74
2021/09/13 06:37:49;;;;;;;14.93;5.88;;;;;;;16.34;82.68;101916.09;5013877;28;20034;-73
2021/09/13 06:40:14;;;;;;;12.85;6.68;;;;;;;16.34;82.27;101917.97;5024729;28;20029;-74
2021/09/13 06:42:39;;;;;;;11.57;5.60;;;;;;;16.42;81.34;101915.13;5022264;28;20061;-73
2021/09/13 06:45:19;;;;;;;9.13;4.90;;;;;;;16.53;79.87;101905.63;5024812;28;20026;-73
2021/09/13 06:47:45;;;;;;;14.98;4.85;;;;;;;16.52;78.97;101917.53;5024387;28;20026;-74
2021/09/13 06:50:25;;;;;;;8.15;4.47;;;;;;;16.50;79.36;101916.88;5020983;28;20102;-75
2021/09/13 06:52:52;;;;;;;9.38;4.15;;;;;;;16.49;79.25;101916.03;5008152;28;20127;-76
2021/09/13 06:55:17;;;;;;;8.17;3.00;;;;;;;16.53;78.77;101909.16;5021430;28;20034;-75
2021/09/13 06:57:43;;;;;;;9.10;3.58;;;;;;;16.49;79.16;101912.50;5039855;28;20037;-75
2021/09/13 07:00:11;;;;;;;8.07;3.47;;;;;;;16.48;79.29;101918.94;5029194;28;20164;-74
2021/09/13 07:02:41;;;;;;;10.95;3.40;;;;;;;16.49;80.80;101928.78;5029667;28;20026;-74
2021/09/13 07:05:08;;;;;;;9.27;3.22;;;;;;;16.59;80.31;101929.31;5026038;28;20022;-74
2021/09/13 07:07:33;;;;;;;6.60;2.70;;;;;;;16.64;79.21;101934.97;5025613;28;20038;-74
2021/09/13 07:09:59;;;;;;;4.57;2.67;;;;;;;16.79;77.93;101935.75;5019736;28;20037;-74
2021/09/13 07:12:24;;;;;;;9.57;2.63;;;;;;;16.86;78.35;101925.78;5020198;28;20084;-74
2021/09/13 07:14:50;;;;;;;9.68;2.92;;;;;;;16.87;78.04;101924.75;5021678;28;20056;-74
2021/09/13 07:17:15;;;;;;;6.07;2.42;;;;;;;16.92;78.36;101939.63;5024983;28;20038;-74
2021/09/13 07:19:41;;;;;;;13.10;3.15;;;;;;;16.98;76.71;101936.13;5019914;28;20412;-74
2021/09/13 07:22:06;;;;;;;10.45;3.10;;;;;;;16.98;76.91;101936.13;5021936;28;20082;-75
2021/09/13 07:24:32;;;;;;;8.75;2.65;;;;;;;16.97;77.99;101937.19;5022591;28;20385;-76
2021/09/13 07:26:57;;;;;;;7.00;3.47;;;;;;;17.05;77.60;101946.00;5023120;28;20026;-75
2021/09/13 07:29:22;;;;;;;9.15;3.15;;;;;;;17.07;77.72;101948.56;5022571;28;20092;-76
2021/09/13 07:31:47;;;;;;;12.25;4.70;;;;;;;17.11;77.51;101952.53;5023481;28;20072;-75
2021/09/13 07:34:13;;;;;;;14.43;4.60;;;;;;;17.19;77.93;101955.09;5024811;28;20030;-75
2021/09/13 07:36:38;;;;;;;9.00;3.40;;;;;;;17.28;77.42;101953.94;5018663;28;20030;-75
2021/09/13 07:39:05;;;;;;;7.40;3.45;;;;;;;17.37;77.15;101964.66;5020217;28;20385;-75
2021/09/13 07:41:30;;;;;;;11.13;2.80;;;;;;;17.47;75.90;101959.69;5018602;28;20411;-76
2021/09/13 07:43:55;;;;;;;11.15;3.33;;;;;;;17.48;74.35;101964.09;5019336;28;20034;-75
2021/09/13 07:46:21;;;;;;;4.93;3.13;;;;;;;17.34;75.07;101964.00;5015941;28;20052;-75
2021/09/13 07:48:46;;;;;;;9.77;3.13;;;;;;;17.40;75.79;101958.81;5015323;28;20041;-76
2021/09/13 07:51:11;;;;;;;8.77;3.92;;;;;;;17.44;76.66;101954.66;5014380;28;20034;-75
2021/09/13 07:53:37;;;;;;;11.18;3.78;;;;;;;17.50;76.28;101962.84;5024778;28;20026;-76
2021/09/13 07:56:02;;;;;;;8.93;3.05;;;;;;;17.56;76.18;101955.75;5017168;28;20140;-75
2021/09/13 07:58:27;;;;;;;15.73;3.17;;;;;;;17.54;76.23;101955.13;5017650;28;20026;-75
2021/09/13 08:00:53;;;;;;;8.93;2.83;;;;;;;17.63;74.04;101959.34;5019795;28;20121;-75
2021/09/13 08:03:18;;;;;;;15.32;3.38;;;;;;;17.52;73.30;101962.66;5016581;28;20030;-75
2021/09/13 08:05:44;;;;;;;12.40;3.05;;;;;;;17.40;73.83;101959.63;5017862;28;20468;-76
2021/09/13 08:08:12;;;;;;;9.23;2.95;;;;;;;17.32;74.01;101966.09;5016305;28;20122;-76
2021/09/13 08:10:37;;;;;;;7.97;2.30;;;;;;;17.53;73.83;101959.72;5016256;28;20018;-76
2021/09/13 08:13:03;;;;;;;11.32;2.85;;;;;;;17.61;74.33;101953.28;5015245;28;20061;-76
2021/09/13 08:15:28;;;;;;;10.93;3.28;;;;;;;17.73;74.67;101954.38;5031168;28;20021;-77
2021/09/13 08:17:54;;;;;;;7.85;2.85;;;;;;;18.02;71.80;101965.22;5015923;28;20029;-76
2021/09/13 08:20:19;;;;;;;18.73;3.30;;;;;;;18.01;72.79;101960.81;5016412;28;20041;-76
2021/09/13 08:22:45;;;;;;;12.10;3.28;;;;;;;18.11;73.00;101959.38;5016878;28;20061;-76
2021/09/13 08:25:10;;;;;;;9.07;3.33;;;;;;;18.13;73.34;101961.91;5016437;28;20421;-77
2021/09/13 08:27:36;;;;;;;11.35;3.70;;;;;;;18.23;73.60;101961.53;5018467;28;20033;-76
2021/09/13 08:30:01;;;;;;;11.50;3.03;;;;;;;18.46;70.55;101962.00;5017353;28;20057;-75
2021/09/13 08:32:26;;;;;;;8.60;2.17;;;;;;;18.37;70.03;101966.78;5019857;28;20089;-76
2021/09/13 08:34:53;;;;;;;6.28;1.92;;;;;;;18.50;69.84;101963.25;5023037;28;20048;-76
2021/09/13 08:37:20;;;;;;;8.13;1.50;;;;;;;18.65;69.24;101969.34;5021236;28;20030;-76
2021/09/13 08:39:46;;;;;;;7.90;1.60;;;;;;;18.69;66.93;101983.41;5023078;28;20033;-75
2021/09/13 08:42:11;;;;;;;4.57;1.10;;;;;;;18.65;66.35;101977.53;5025895;28;20281;-77
2021/09/13 08:44:39;;;;;;;3.92;2.00;;;;;;;18.85;65.50;101984.91;5025329;28;20049;-76
2021/09/13 08:47:19;;;;;;;5.45;1.38;;;;;;;19.04;66.59;101988.72;5018780;28;20367;-77
2021/09/13 08:49:46;;;;;;;4.20;1.35;;;;;;;19.67;65.00;101993.69;4999973;28;20069;-77
2021/09/13 08:52:12;;;;;;;4.47;1.63;;;;;;;19.98;63.82;101986.63;5034124;28;20051;-75
2021/09/13 08:54:39;;;;;;;5.30;1.58;;;;;;;20.73;63.42;101992.34;5005505;28;20025;-75
2021/09/13 08:57:05;;;;;;;6.15;1.02;;;;;;;21.27;59.33;101999.91;5021020;28;20053;-76
2021/09/13 08:59:35;;;;;;;7.13;1.33;;;;;;;21.55;57.51;101987.63;5024553;28;20053;-76
2021/09/13 09:02:01;;;;;;;4.85;1.35;;;;;;;21.27;59.98;101994.41;5019609;28;20037;-77
2021/09/13 09:04:28;;;;;;;4.22;1.50;;;;;;;21.33;56.97;101992.69;5022721;28;20030;-75
2021/09/13 09:06:54;;;;;;;3.00;1.10;;;;;;;21.42;59.94;101999.56;5019054;28;20036;-75
2021/09/13 09:09:21;;;;;;;5.78;0.95;;;;;;;22.57;55.31;102003.44;5020092;28;20038;-76
2021/09/13 09:11:59;;;;;;;3.15;1.08;;;;;;;23.09;51.95;101991.84;5022158;28;20453;-75
2021/09/13 09:14:30;;;;;;;5.03;1.10;;;;;;;23.57;51.54;101991.63;5023825;28;20386;-75
2021/09/13 09:17:08;;;;;;;6.50;1.00;;;;;;;22.90;52.31;101997.41;5012693;28;20030;-75
2021/09/13 09:19:34;;;;;;;2.47;0.80;;;;;;;23.69;49.55;102005.34;5025383;28;20107;-75
2021/09/13 09:22:25;;;;;;;4.07;1.00;;;;;;;22.97;51.01;101998.19;5002766;28;20485;-75
2021/09/13 09:24:53;;;;;;;3.53;1.23;;;;;;;23.12;52.08;102002.38;5023972;28;20089;-76
2021/09/13 09:27:19;;;;;;;2.67;1.00;;;;;;;23.03;51.64;101999.13;5023591;28;20116;-75
2021/09/13 09:29:44;;;;;;;7.32;1.38;;;;;;;23.15;50.64;101994.50;5019956;28;20561;-75
2021/09/13 09:32:09;;;;;;;6.20;1.45;;;;;;;23.49;51.50;101996.66;5024873;28;20022;-76
2021/09/13 09:34:36;;;;;;;3.08;0.85;;;;;;;23.62;49.92;101994.47;5023254;28;20006;-77
2021/09/13 09:37:10;;;;;;;1.90;0.90;;;;;;;23.14;49.29;101998.31;5021170;28;20037;-75
2021/09/13 09:39:41;;;;;;;3.55;1.00;;;;;;;22.98;50.13;101996.28;5036306;28;20034;-77
2021/09/13 09:42:09;;;;;;;2.15;0.75;;;;;;;22.54;51.35;101995.69;5021404;28;20065;-75
2021/09/13 09:44:36;;;;;;;3.53;1.10;;;;;;;22.31;52.42;101989.03;5024651;28;20456;-75
2021/09/13 09:47:07;;;;;;;1.60;0.70;;;;;;;22.18;54.13;101988.34;5017454;28;20017;-76
2021/09/13 09:49:43;;;;;;;4.15;1.10;;;;;;;22.00;52.58;101981.81;5025408;28;20048;-75
2021/09/13 09:52:09;;;;;;;3.63;0.70;;;;;;;21.76;55.20;101985.50;5022165;28;20041;-75
2021/09/13 09:54:35;;;;;;;5.05;1.30;;;;;;;21.82;54.81;101979.09;5034032;28;20052;-75
2021/09/13 09:57:09;;;;;;;6.28;1.42;;;;;;;21.54;54.35;101983.22;5020701;28;20026;-76
2021/09/13 09:59:42;;;;;;;6.40;1.40;;;;;;;21.31;56.57;101983.00;5017860;28;20540;-75
2021/09/13 10:02:15;;;;;;;4.70;1.48;;;;;;;21.13;56.33;101981.06;5013815;28;20030;-76
2021/09/13 10:04:42;;;;;;;2.15;1.10;;;;;;;21.28;56.37;101970.59;5009371;28;20034;-76
2021/09/13 10:07:08;;;;;;;1.63;1.10;;;;;;;21.38;56.66;101973.69;5020880;28;20057;-77
2021/09/13 10:09:33;;;;;;;2.88;1.50;;;;;;;21.67;55.59;101976.75;5023212;28;20045;-75
2021/09/13 10:12:01;;;;;;;2.35;1.10;;;;;;;21.82;54.71;101973.63;5018959;28;20042;-75
2021/09/13 10:14:27;;;;;;;;;;;;;;;21.41;54.43;101970.50;5014805;28;20034;-75
2021/09/13 10:16:54;;;;;;;5.80;1.50;;;;;;;21.46;56.26;101972.56;5019961;28;19924;-77
2021/09/13 10:19:21;;;;;;;7.78;1.55;;;;;;;21.44;55.44;101970.03;5038666;28;20064;-76
2021/09/13 10:21:47;;;;;;;5.07;1.50;;;;;;;21.25;56.94;101969.16;5029505;28;20424;-75
2021/09/13 10:24:16;;;;;;;3.73;1.73;;;;;;;21.17;55.86;101966.72;5029035;28;20022;-75
2021/09/13 10:26:46;;;;;;;3.70;1.88;;;;;;;20.87;57.62;101966.53;4998037;28;20127;-74
2021/09/13 10:29:11;;;;;;;2.70;1.65;;;;;;;20.72;57.45;101969.63;5024392;28;20425;-75
2021/09/13 10:31:44;;;;;;;7.53;1.92;;;;;;;20.74;58.03;101970.22;5021104;28;20030;-75
2021/09/13 10:34:16;;;;;;;5.20;1.77;;;;;;;20.64;57.12;101967.13;5021932;28;20026;-75
2021/09/13 10:37:14;;;;;;;4.45;1.48;;;;;;;20.59;56.85;101964.25;5018848;28;20106;-74
2021/09/13 10:39:49;;;;;;;2.17;1.40;;;;;;;20.64;57.42;101966.31;5014108;28;20021;-74
2021/09/13 10:42:45;;;;;;;3.60;1.80;;;;;;;20.37;57.75;101961.81;5016527;28;20036;-74
2021/09/13 10:45:27;;;;;;;4.57;1.55;;;;;;;20.58;57.50;101962.56;5018079;28;20029;-75
2021/09/13 10:47:58;;;;;;;3.78;1.40;;;;;;;20.59;56.99;101953.31;5017978;28;20060;-74
2021/09/13 10:50:45;;;;;;;4.32;1.42;;;;;;;20.63;57.02;101960.00;5019570;28;20037;-74
2021/09/13 10:53:17;;;;;;;3.67;1.40;;;;;;;20.50;56.90;101952.69;5016691;28;20040;-74
2021/09/13 10:55:44;;;;;;;3.45;1.60;;;;;;;20.53;57.35;101948.69;5012965;28;20472;-75
2021/09/13 10:58:14;;;;;;;6.45;1.77;;;;;;;20.69;57.41;101948.16;5020819;28;20052;-75
2021/09/13 11:00:50;;;;;;;3.92;1.55;;;;;;;20.75;57.58;101944.56;5024576;28;20022;-75
2021/09/13 11:03:34;;;;;;;3.83;1.65;;;;;;;20.74;56.87;101945.59;5021174;28;20026;-73
2021/09/13 11:08:37;;;;;;;4.50;1.80;;;;;;;20.51;57.12;101945.31;5021604;28;20041;-73
2021/09/13 11:11:18;;;;;;;3.67;1.60;;;;;;;20.85;57.15;101937.72;5019587;28;20069;-76
2021/09/13 11:13:46;;;;;;;5.43;1.52;;;;;;;21.11;55.10;101940.22;5019072;28;20033;-76
2021/09/13 11:16:20;;;;;;;5.25;1.65;;;;;;;21.06;56.06;101940.06;5018775;28;20022;-74
2021/09/13 11:18:47;;;;;;;3.55;1.48;;;;;;;20.84;56.08;101934.16;5020449;28;20030;-73
2021/09/13 11:21:22;;;;;;;2.72;1.88;;;;;;;20.81;55.78;101935.44;5016890;28;20171;-75
2021/09/13 11:23:51;;;;;;;6.35;2.00;;;;;;;20.65;56.27;101933.28;5032269;28;20567;-75
2021/09/13 11:26:18;;;;;;;5.28;1.90;;;;;;;20.51;56.60;101928.91;5018009;28;20041;-75